createdAt,value
2019-04-25T05:28:25.282Z,99.90
2019-04-25T05:30:55.459Z,71.90
2019-04-25T05:33:22.738Z,67.70
2019-04-25T05:35:49.061Z,71.10
2019-04-25T05:38:15.109Z,71.20
2019-04-25T05:53:08.998Z,66.20
2019-04-25T05:55:34.405Z,58.90
2019-04-25T05:57:59.668Z,58.40
2019-04-25T06:00:25.740Z,57.40
2019-04-25T06:10:14.943Z,55.30
2019-04-25T06:12:45.053Z,52.80
2019-04-25T06:15:10.664Z,53.70
2019-04-25T06:17:46.819Z,54.40
2019-04-25T06:20:14.477Z,51.80
2019-04-25T06:22:50.656Z,51.00
2019-04-25T06:25:17.521Z,51.50
2019-04-25T06:27:51.193Z,52.00
2019-04-25T06:30:15.642Z,51.70
2019-04-25T06:32:41.234Z,51.20
2019-04-25T06:35:06.506Z,50.50
2019-04-25T06:37:31.729Z,50.50
2019-04-25T06:39:57.380Z,50.90
2019-04-25T06:42:24.552Z,50.50
2019-04-25T06:44:54.615Z,49.90
2019-04-25T06:47:34.167Z,50.20
2019-04-25T06:49:59.623Z,49.30
2019-04-25T06:52:29.205Z,47.80
2019-04-25T06:54:53.282Z,49.50
2019-04-25T06:57:18.644Z,48.90
2019-04-25T06:59:45.028Z,49.70
2019-04-25T07:37:00.480Z,51.00
2019-04-25T08:18:32.716Z,46.60
2019-04-25T08:21:00.202Z,41.70
2019-04-25T08:45:22.126Z,42.10
2019-04-25T11:36:30.487Z,38.70
2019-04-25T11:39:10.004Z,47.10
2019-04-25T11:41:37.086Z,46.50
2019-04-25T11:44:03.495Z,46.90
2019-04-25T11:51:20.864Z,45.20
2019-04-25T11:56:13.813Z,45.60
2019-04-25T11:58:39.106Z,45.20
2019-04-25T12:01:05.119Z,45.70
2019-04-25T12:03:30.582Z,45.30
2019-04-25T12:05:56.666Z,45.10
2019-04-25T12:08:22.000Z,45.60
2019-04-25T12:10:47.889Z,45.60
2019-04-25T12:13:15.294Z,46.20
2019-04-25T12:15:40.399Z,46.80
2019-04-25T12:18:05.599Z,47.10
2019-04-25T12:20:31.903Z,47.70
